createdAt,value
2023-08-09T00:01:47.121Z,13.44
2023-08-09T00:03:49.283Z,13.43
2023-08-09T00:05:53.661Z,13.43
2023-08-09T00:07:58.375Z,13.43
2023-08-09T00:10:00.300Z,13.42
2023-08-09T00:12:04.784Z,13.42
2023-08-09T00:14:06.760Z,13.41
2023-08-09T00:16:08.447Z,13.40
2023-08-09T00:18:10.086Z,13.40
2023-08-09T00:20:13.617Z,13.38
2023-08-09T00:22:15.354Z,13.37
2023-08-09T00:24:17.385Z,13.34
2023-08-09T00:26:22.946Z,13.36
2023-08-09T00:28:26.362Z,13.34
2023-08-09T00:30:29.145Z,13.32
2023-08-09T00:32:30.896Z,13.30
2023-08-09T00:34:36.023Z,13.31
2023-08-09T00:36:37.586Z,13.30
2023-08-09T00:38:39.821Z,13.28
2023-08-09T00:40:41.837Z,13.28
2023-08-09T00:42:44.091Z,13.28
2023-08-09T00:44:50.000Z,13.27
2023-08-09T00:46:51.992Z,13.26
2023-08-09T00:48:55.082Z,13.25
2023-08-09T00:50:57.035Z,13.25
2023-08-09T00:53:01.071Z,13.25
2023-08-09T00:55:04.156Z,13.24
2023-08-09T00:57:07.063Z,13.23
2023-08-09T00:59:14.083Z,13.23
2023-08-09T01:01:17.417Z,13.23
2023-08-09T01:03:20.257Z,13.23
2023-08-09T01:05:26.675Z,13.23
2023-08-09T01:07:33.682Z,13.22
2023-08-09T01:09:43.028Z,13.22
2023-08-09T01:11:50.140Z,13.23
2023-08-09T01:13:54.555Z,13.21
2023-08-09T01:15:57.118Z,13.21
2023-08-09T01:18:02.439Z,13.21
2023-08-09T01:20:05.032Z,13.18
2023-08-09T01:22:11.359Z,13.19
2023-08-09T01:24:15.323Z,13.19
2023-08-09T01:26:16.916Z,13.18
2023-08-09T01:28:18.650Z,13.15
2023-08-09T05:53:18.449Z,14.11
2023-08-09T05:55:20.420Z,14.13
2023-08-09T05:57:22.303Z,14.15
2023-08-09T05:59:24.480Z,14.18
2023-08-09T06:01:26.232Z,14.21
2023-08-09T06:03:27.891Z,14.25
2023-08-09T06:05:29.626Z,14.26
2023-08-09T06:07:31.303Z,14.30
2023-08-09T06:09:34.711Z,14.30
2023-08-09T06:11:36.788Z,14.33
2023-08-09T06:13:38.434Z,14.37
2023-08-09T06:15:40.051Z,14.38
2023-08-09T06:17:41.742Z,14.41
2023-08-09T06:19:43.838Z,14.43
2023-08-09T06:21:45.594Z,14.47
2023-08-09T06:23:47.184Z,14.49
2023-08-09T06:25:50.169Z,14.51
2023-08-09T06:27:52.116Z,14.55
2023-08-09T06:29:54.076Z,14.56
2023-08-09T06:31:55.705Z,14.59
2023-08-09T06:33:57.356Z,14.60
2023-08-09T06:35:59.006Z,14.62
2023-08-09T06:38:09.818Z,14.67
2023-08-09T06:40:16.645Z,14.66
2023-08-09T06:42:19.673Z,14.69
2023-08-09T06:44:23.607Z,14.69
2023-08-09T06:46:25.261Z,14.69
2023-08-09T06:48:26.970Z,14.71
2023-08-09T06:50:28.701Z,14.72
2023-08-09T06:52:30.363Z,14.72
2023-08-09T06:54:32.100Z,14.73
2023-08-09T06:56:33.757Z,14.76
2023-08-09T06:58:36.816Z,14.79
2023-08-09T07:00:38.605Z,14.82
2023-08-09T07:02:40.596Z,14.87
2023-08-09T07:04:42.244Z,14.91
2023-08-09T07:06:43.876Z,14.94
2023-08-09T07:08:45.645Z,15.03
2023-08-09T07:10:47.344Z,15.08
2023-08-09T07:12:49.002Z,15.14
2023-08-09T07:14:51.985Z,15.18
2023-08-09T07:16:53.914Z,15.22
2023-08-09T07:18:57.709Z,15.25
2023-08-09T07:21:01.022Z,15.26
2023-08-09T07:23:02.892Z,15.28
2023-08-09T07:25:05.296Z,15.32
2023-08-09T07:27:06.878Z,15.32
2023-08-09T07:29:08.562Z,15.35
2023-08-09T07:31:18.549Z,15.37
2023-08-09T07:33:20.293Z,15.37
2023-08-09T07:35:21.990Z,15.37
2023-08-09T07:37:23.818Z,15.37
2023-08-09T07:39:25.852Z,15.37
2023-08-09T07:41:27.939Z,15.38
2023-08-09T07:43:29.673Z,15.40
2023-08-09T07:45:31.290Z,15.40
2023-08-09T07:47:34.309Z,15.42
2023-08-09T07:49:36.040Z,15.43
2023-08-09T07:51:37.729Z,15.44
2023-08-09T07:53:39.473Z,15.46
2023-08-09T07:55:41.701Z,15.47
2023-08-09T07:57:43.805Z,15.48
2023-08-09T07:59:45.573Z,15.50
2023-08-09T08:01:47.226Z,15.51
2023-08-09T08:03:50.372Z,15.52
2023-08-09T08:05:54.408Z,15.54
2023-08-09T08:07:56.163Z,15.56
2023-08-09T08:09:57.799Z,15.59
2023-08-09T08:12:02.730Z,15.62
2023-08-09T08:14:08.028Z,15.65
2023-08-09T08:16:09.738Z,15.67
2023-08-09T08:18:11.476Z,15.70
2023-08-09T08:20:14.645Z,15.72
2023-08-09T08:22:16.275Z,15.74
2023-08-09T08:24:17.952Z,15.72
2023-08-09T08:26:19.721Z,15.75
2023-08-09T08:28:21.371Z,15.75
2023-08-09T08:30:23.021Z,15.77
2023-08-09T08:32:24.637Z,15.78
2023-08-09T08:34:26.287Z,15.79
2023-08-09T08:36:30.806Z,15.81
2023-08-09T08:38:32.707Z,15.82
2023-08-09T08:40:37.552Z,15.83
2023-08-09T08:42:39.230Z,15.82
2023-08-09T08:44:41.238Z,15.82
2023-08-09T08:46:44.434Z,15.84
2023-08-09T08:48:48.593Z,15.84
2023-08-09T08:50:51.485Z,15.86
2023-08-09T08:52:55.805Z,15.87
2023-08-09T08:54:58.095Z,15.89
2023-08-09T08:56:59.755Z,15.92
2023-08-09T08:59:02.239Z,15.94
2023-08-09T09:01:04.449Z,15.98
2023-08-09T09:03:06.337Z,16.00
2023-08-09T09:05:09.210Z,16.03
2023-08-09T09:07:11.295Z,16.10
2023-08-09T09:09:15.830Z,16.14
2023-08-09T09:11:18.042Z,16.20
2023-08-09T09:13:26.401Z,16.30
2023-08-09T09:15:29.292Z,16.39
2023-08-09T09:17:31.823Z,16.50
2023-08-09T09:19:35.214Z,16.61
2023-08-09T09:21:38.286Z,16.72
2023-08-09T09:23:40.639Z,16.80
2023-08-09T09:25:46.093Z,16.89
2023-08-09T09:27:49.202Z,16.99
2023-08-09T09:29:50.830Z,17.06
2023-08-09T09:31:58.501Z,17.11
2023-08-09T09:34:00.159Z,17.16
2023-08-09T09:36:02.777Z,17.20
2023-08-09T09:38:06.750Z,17.25
2023-08-09T09:40:12.259Z,17.28
2023-08-09T09:42:17.261Z,17.33
2023-08-09T09:44:20.551Z,17.37
2023-08-09T09:48:29.057Z,17.53
2023-08-09T09:50:32.026Z,17.62
2023-08-09T09:52:35.232Z,17.75
2023-08-09T09:54:37.209Z,17.79
2023-08-09T09:56:38.947Z,17.84
2023-08-09T09:58:42.702Z,17.88
2023-08-09T10:00:47.169Z,17.91
2023-08-09T10:02:51.096Z,17.95
2023-08-09T10:04:53.122Z,18.01
2023-08-09T10:06:55.301Z,18.05
2023-08-09T10:08:58.764Z,18.12
2023-08-09T10:11:03.574Z,18.16
2023-08-09T10:13:06.561Z,18.25
2023-08-09T10:15:14.026Z,18.31
2023-08-09T10:17:18.473Z,18.37
2023-08-09T10:19:22.872Z,18.42
2023-08-09T10:21:25.676Z,18.45
2023-08-09T10:23:28.485Z,18.46
2023-08-09T10:25:43.207Z,18.51
2023-08-09T10:27:52.366Z,18.53
2023-08-09T10:29:58.141Z,18.59
2023-08-09T10:32:02.278Z,18.64
2023-08-09T10:34:13.777Z,18.78
2023-08-09T10:36:32.563Z,18.90
2023-08-09T10:38:48.129Z,19.01
2023-08-09T10:40:52.788Z,19.12
2023-08-09T10:42:54.812Z,19.21
2023-08-09T10:45:04.935Z,19.27
2023-08-09T10:47:11.407Z,19.29
2023-08-09T10:49:13.362Z,19.28
2023-08-09T10:51:19.254Z,19.25
2023-08-09T10:53:21.488Z,19.21
2023-08-09T10:55:28.151Z,19.12
2023-08-09T10:57:41.625Z,19.09
2023-08-09T10:59:43.911Z,19.02
2023-08-09T11:01:45.558Z,18.93
2023-08-09T11:03:49.301Z,18.86
2023-08-09T11:05:52.493Z,18.78
2023-08-09T11:07:57.028Z,18.73
2023-08-09T11:09:58.668Z,18.70
2023-08-09T11:12:00.515Z,18.66
2023-08-09T11:14:02.772Z,18.61
2023-08-09T11:16:08.870Z,18.58
2023-08-09T11:18:10.696Z,18.49
2023-08-09T11:20:15.425Z,18.43
2023-08-09T11:22:17.168Z,18.32
2023-08-09T11:24:21.091Z,18.19
2023-08-09T11:26:23.769Z,18.06
2023-08-09T11:28:26.745Z,17.92
2023-08-09T11:30:31.485Z,17.78
2023-08-09T11:32:33.151Z,17.68
2023-08-09T11:34:35.026Z,17.57
2023-08-09T11:36:38.142Z,17.46
2023-08-09T11:38:40.102Z,17.39
2023-08-09T11:40:43.998Z,17.33
2023-08-09T11:42:45.559Z,17.28
2023-08-09T11:44:47.197Z,17.23
2023-08-09T11:46:51.635Z,17.18
2023-08-09T11:48:53.329Z,17.16
2023-08-09T11:51:06.780Z,17.16
2023-08-09T11:53:10.679Z,17.11
2023-08-09T11:55:12.366Z,17.11
2023-08-09T11:57:13.970Z,17.12
2023-08-09T11:59:18.580Z,17.14
2023-08-09T12:01:22.193Z,17.15
2023-08-09T12:03:23.947Z,17.14
2023-08-09T12:05:25.900Z,17.18
2023-08-09T12:07:27.551Z,17.19
2023-08-09T12:09:32.331Z,17.22
2023-08-09T12:11:34.270Z,17.26
2023-08-09T12:13:36.353Z,17.31
2023-08-09T12:15:37.939Z,17.36
2023-08-09T12:17:39.646Z,17.40
2023-08-09T12:19:41.579Z,17.46
2023-08-09T12:21:43.641Z,17.52
2023-08-09T12:23:45.407Z,17.57
2023-08-09T12:25:48.462Z,17.64
2023-08-09T12:27:50.117Z,17.71
2023-08-09T12:29:53.040Z,17.76
2023-08-09T12:31:54.737Z,17.80
2023-08-09T12:33:56.693Z,17.87
2023-08-09T12:35:58.343Z,17.94
2023-08-09T12:37:59.934Z,18.02
2023-08-09T12:40:01.778Z,18.12
2023-08-09T12:42:10.846Z,18.20
2023-08-09T12:44:12.742Z,18.28
2023-08-09T12:46:14.451Z,18.34
2023-08-09T12:48:16.507Z,18.40
2023-08-09T12:50:18.238Z,18.45
2023-08-09T12:52:19.802Z,18.52
2023-08-09T12:54:21.742Z,18.58
2023-08-09T12:56:25.715Z,18.61
2023-08-09T12:58:29.142Z,18.64
2023-08-09T13:00:31.009Z,18.68
2023-08-09T13:02:32.638Z,18.70
2023-08-09T13:04:37.088Z,18.69
2023-08-09T13:06:38.682Z,18.68
2023-08-09T13:08:40.438Z,18.65
2023-08-09T13:10:42.501Z,18.61
2023-08-09T13:12:44.586Z,18.56
2023-08-09T13:14:47.775Z,18.47
2023-08-09T13:16:49.324Z,18.39
2023-08-09T13:18:50.994Z,18.34
2023-08-09T13:20:52.598Z,18.27
2023-08-09T13:22:54.552Z,18.22
2023-08-09T13:24:56.453Z,18.19
2023-08-09T13:26:58.142Z,18.17
2023-08-09T13:28:59.763Z,18.15
2023-08-09T13:31:02.849Z,18.18
2023-08-09T13:33:05.357Z,18.22
2023-08-09T13:35:08.353Z,18.30
2023-08-09T13:37:10.063Z,18.37
2023-08-09T13:39:11.666Z,18.44
2023-08-09T13:41:13.410Z,18.47
2023-08-09T13:43:15.168Z,18.57
2023-08-09T13:45:16.957Z,18.61
2023-08-09T13:47:20.446Z,18.67
2023-08-09T13:49:23.407Z,18.72
2023-08-09T13:51:26.303Z,18.77
2023-08-09T13:53:27.924Z,18.80
2023-08-09T13:55:30.084Z,18.83
2023-08-09T13:57:31.763Z,18.86
2023-08-09T13:59:33.418Z,18.87
2023-08-09T14:01:35.162Z,18.89
2023-08-09T14:03:38.167Z,18.91
2023-08-09T14:05:39.810Z,18.91
2023-08-09T14:07:42.695Z,18.89
2023-08-09T14:09:45.885Z,18.86
2023-08-09T14:11:47.656Z,18.85
2023-08-09T14:13:49.375Z,18.85
2023-08-09T14:15:51.224Z,18.82
2023-08-09T14:17:53.952Z,18.83
2023-08-09T14:19:57.086Z,18.82
2023-08-09T14:21:58.736Z,18.84
2023-08-09T14:24:00.392Z,18.88
2023-08-09T14:26:02.267Z,18.88
2023-08-09T14:28:04.436Z,18.92
2023-08-09T14:30:07.400Z,18.93
2023-08-09T14:32:09.329Z,18.95
2023-08-09T14:34:11.018Z,18.97
2023-08-09T14:36:16.332Z,18.98
2023-08-09T14:38:17.998Z,19.00
2023-08-09T14:40:19.715Z,19.00
2023-08-09T14:42:21.529Z,18.99
2023-08-09T14:44:23.377Z,19.02
2023-08-09T14:46:25.575Z,19.01
2023-08-09T14:48:27.302Z,19.03
2023-08-09T14:50:29.036Z,19.06
2023-08-09T14:52:33.555Z,19.08
2023-08-09T14:54:38.744Z,19.14
2023-08-09T14:56:41.026Z,19.20
2023-08-09T14:58:44.255Z,19.27
2023-08-09T15:00:46.249Z,19.34
2023-08-09T15:02:48.500Z,19.39
2023-08-09T15:04:50.526Z,19.48
2023-08-09T15:06:52.186Z,19.55
2023-08-09T15:08:55.229Z,19.60
2023-08-09T15:10:56.988Z,19.62
2023-08-09T15:12:58.664Z,19.69
2023-08-09T15:15:00.640Z,19.72
2023-08-09T15:17:09.766Z,19.74
2023-08-09T15:19:15.671Z,19.76
2023-08-09T15:21:17.442Z,19.77
2023-08-09T15:23:19.548Z,19.78
2023-08-09T15:25:24.355Z,19.78
2023-08-09T15:27:26.419Z,19.79
2023-08-09T15:29:28.063Z,19.81
2023-08-09T15:31:29.787Z,19.81
2023-08-09T15:33:31.546Z,19.82
2023-08-09T15:35:33.333Z,19.86
2023-08-09T15:37:35.039Z,19.88
2023-08-09T15:39:36.625Z,19.88
2023-08-09T15:41:39.513Z,19.90
2023-08-09T15:43:41.251Z,19.90
2023-08-09T15:45:43.185Z,19.90
2023-08-09T15:47:45.116Z,19.92
2023-08-09T15:49:47.306Z,19.91
2023-08-09T15:51:49.273Z,19.92
2023-08-09T15:53:50.913Z,19.93
2023-08-09T15:55:52.592Z,19.91
2023-08-09T15:57:55.674Z,19.88
2023-08-09T15:59:57.350Z,19.87
2023-08-09T16:01:59.207Z,19.85
2023-08-09T16:04:00.968Z,19.80
2023-08-09T16:06:02.787Z,19.78
2023-08-09T16:08:05.167Z,19.73
2023-08-09T16:10:08.089Z,19.70
2023-08-09T16:12:09.857Z,19.68
2023-08-09T16:14:12.970Z,19.64
2023-08-09T16:16:28.288Z,19.60
2023-08-09T16:18:35.450Z,19.57
2023-08-09T16:20:37.201Z,19.53
2023-08-09T16:22:38.851Z,19.51
2023-08-09T16:24:40.673Z,19.49
2023-08-09T16:26:42.852Z,19.48
2023-08-09T16:28:44.916Z,19.45
2023-08-09T16:30:48.045Z,19.45
2023-08-09T16:32:50.285Z,19.43
2023-08-09T16:34:52.733Z,19.44
2023-08-09T16:36:54.911Z,19.43
2023-08-09T16:38:56.646Z,19.43
2023-08-09T16:40:58.271Z,19.42
2023-08-09T16:43:00.358Z,19.41
2023-08-09T16:45:02.430Z,19.40
2023-08-09T16:47:06.154Z,19.37
2023-08-09T16:49:07.861Z,19.36
2023-08-09T16:51:10.056Z,19.35
2023-08-09T16:53:11.888Z,19.32
2023-08-09T16:55:13.764Z,19.29
2023-08-09T16:57:15.352Z,19.28
2023-08-09T16:59:16.970Z,19.25
2023-08-09T17:01:18.719Z,19.23
2023-08-09T17:03:22.296Z,19.19
2023-08-09T17:05:24.087Z,19.16
2023-08-09T17:07:26.814Z,19.13
2023-08-09T17:09:28.463Z,19.10
2023-08-09T17:11:30.428Z,19.07
2023-08-09T17:13:32.497Z,19.06
2023-08-09T17:15:34.169Z,19.05
2023-08-09T17:17:35.902Z,19.04
2023-08-09T17:19:38.863Z,19.03
2023-08-09T17:21:40.773Z,19.01
2023-08-09T17:23:43.019Z,19.00
2023-08-09T17:25:44.696Z,18.99
2023-08-09T17:27:46.591Z,19.00
2023-08-09T17:29:48.273Z,19.00
2023-08-09T17:31:50.150Z,18.99
2023-08-09T17:33:51.900Z,19.00
2023-08-09T17:35:56.168Z,18.99
2023-08-09T17:37:57.770Z,18.98
2023-08-09T17:39:59.937Z,18.96
2023-08-09T17:42:03.143Z,18.98
2023-08-09T17:44:05.807Z,18.95
2023-08-09T17:46:07.424Z,18.94
2023-08-09T17:48:09.386Z,18.92
2023-08-09T17:50:11.346Z,18.91
2023-08-09T17:52:14.405Z,18.87
2023-08-09T17:54:16.053Z,18.84
2023-08-09T17:56:17.985Z,18.82
2023-08-09T17:58:20.107Z,18.80
2023-08-09T18:00:22.198Z,18.76
2023-08-09T18:02:24.160Z,18.74
2023-08-09T18:04:26.048Z,18.70
2023-08-09T18:06:28.002Z,18.68
2023-08-09T18:08:31.201Z,18.64
2023-08-09T18:10:33.020Z,18.61
2023-08-09T18:12:34.833Z,18.56
2023-08-09T18:14:36.673Z,18.54
2023-08-09T18:16:40.501Z,18.49
2023-08-09T18:18:42.588Z,18.45
2023-08-09T18:20:44.574Z,18.43
2023-08-09T18:22:48.674Z,18.40
2023-08-09T18:24:51.908Z,18.37
2023-08-09T18:26:57.962Z,18.34
2023-08-09T18:29:01.278Z,18.33
2023-08-09T18:31:03.132Z,18.30
2023-08-09T18:33:05.120Z,18.28
2023-08-09T18:35:17.356Z,18.27
2023-08-09T18:37:20.459Z,18.25
2023-08-09T18:39:22.685Z,18.21
2023-08-09T18:41:25.802Z,18.19
2023-08-09T18:43:27.441Z,18.15
2023-08-09T18:45:31.124Z,18.16
2023-08-09T18:47:33.600Z,18.13
2023-08-09T18:49:35.505Z,18.09
2023-08-09T18:51:37.241Z,18.09
2023-08-09T18:53:39.054Z,18.07
2023-08-09T18:55:42.566Z,18.05
2023-08-09T18:57:45.772Z,18.04
2023-08-09T18:59:47.659Z,18.03
2023-08-09T19:01:49.556Z,18.00
2023-08-09T19:03:52.804Z,17.98
2023-08-09T19:05:54.996Z,17.96
2023-08-09T19:08:00.020Z,17.95
2023-08-09T19:10:02.113Z,17.93
2023-08-09T19:12:03.994Z,17.90
2023-08-09T19:14:07.412Z,17.89
2023-08-09T19:16:09.244Z,17.87
2023-08-09T19:18:11.781Z,17.85
2023-08-09T19:20:19.263Z,17.84
2023-08-09T19:22:24.327Z,17.81
2023-08-09T19:24:26.270Z,17.79
2023-08-09T19:26:28.124Z,17.77
2023-08-09T19:28:30.589Z,17.76
2023-08-09T19:30:33.850Z,17.74
2023-08-09T19:32:35.697Z,17.70
2023-08-09T19:34:37.376Z,17.71
2023-08-09T19:36:44.922Z,17.71
2023-08-09T19:38:47.099Z,17.68
2023-08-09T19:40:49.010Z,17.66
2023-08-09T19:42:51.300Z,17.65
2023-08-09T19:44:53.284Z,17.64
2023-08-09T19:46:56.908Z,17.63
2023-08-09T19:48:58.590Z,17.62
2023-08-09T19:51:00.377Z,17.59
2023-08-09T19:53:02.443Z,17.59
2023-08-09T19:55:05.125Z,17.57
2023-08-09T19:57:07.001Z,17.56
2023-08-09T19:59:08.971Z,17.55
2023-08-09T20:01:10.880Z,17.52
2023-08-09T20:03:14.285Z,17.50
2023-08-09T20:05:16.548Z,17.47
2023-08-09T20:07:18.362Z,17.46
2023-08-09T20:09:20.039Z,17.44
2023-08-09T20:11:21.872Z,17.43
2023-08-09T20:13:23.845Z,17.42
2023-08-09T20:15:25.586Z,17.39
2023-08-09T20:17:27.803Z,17.37
2023-08-09T20:19:31.401Z,17.34
2023-08-09T20:21:33.136Z,17.31
2023-08-09T20:23:35.683Z,17.27
2023-08-09T20:25:37.393Z,17.24
2023-08-09T20:27:39.408Z,17.20
2023-08-09T20:29:43.057Z,17.16
2023-08-09T20:31:45.635Z,17.14
2023-08-09T20:33:47.385Z,17.12
2023-08-09T20:35:50.762Z,17.08
2023-08-09T20:37:53.768Z,17.06
2023-08-09T20:39:56.302Z,17.03
2023-08-09T20:41:57.981Z,17.00
2023-08-09T20:43:59.855Z,16.98
2023-08-09T20:46:04.732Z,16.96
2023-08-09T20:48:07.108Z,16.94
2023-08-09T20:50:10.017Z,16.89
2023-08-09T20:52:13.456Z,16.87
2023-08-09T20:54:15.364Z,16.85
2023-08-09T20:56:17.027Z,16.82
2023-08-09T20:58:18.670Z,16.80
2023-08-09T21:00:20.680Z,16.79
2023-08-09T21:02:22.369Z,16.77
2023-08-09T21:04:24.053Z,16.74
2023-08-09T21:06:25.930Z,16.74
2023-08-09T21:08:29.081Z,16.70
2023-08-09T21:10:31.587Z,16.70
2023-08-09T21:12:33.418Z,16.68
2023-08-09T21:14:39.073Z,16.66
2023-08-09T21:16:41.070Z,16.64
2023-08-09T21:18:44.404Z,16.64
2023-08-09T21:20:46.701Z,16.63
2023-08-09T21:22:48.343Z,16.62
2023-08-09T21:29:02.302Z,16.58
2023-08-09T21:31:05.141Z,16.56
2023-08-09T21:33:08.515Z,16.55
2023-08-09T21:35:10.576Z,16.54
2023-08-09T21:37:13.605Z,16.52
2023-08-09T21:39:15.864Z,16.51
2023-08-09T21:41:22.051Z,16.50
2023-08-09T21:43:24.454Z,16.49
2023-08-09T21:45:26.943Z,16.49
2023-08-09T21:47:30.528Z,16.46
2023-08-09T21:49:33.141Z,16.45
2023-08-09T21:51:36.288Z,16.43
2023-08-09T21:53:38.288Z,16.42
2023-08-09T21:55:40.779Z,16.40
2023-08-09T21:57:44.985Z,16.39
2023-08-09T21:59:47.657Z,16.38
2023-08-09T22:02:30.325Z,16.39
2023-08-09T22:04:32.103Z,16.34
2023-08-09T22:06:33.889Z,16.32
2023-08-09T22:08:35.544Z,16.31
2023-08-09T22:10:37.222Z,16.30
2023-08-09T22:12:39.136Z,16.26
2023-08-09T22:14:42.108Z,16.26
2023-08-09T22:16:44.051Z,16.24
2023-08-09T22:18:45.680Z,16.24
2023-08-09T22:20:48.022Z,16.22
2023-08-09T22:22:49.677Z,16.21
2023-08-09T22:24:51.301Z,16.20
2023-08-09T22:26:53.159Z,16.19
2023-08-09T22:28:54.780Z,16.18
2023-08-09T22:30:58.066Z,16.17
2023-08-09T22:32:59.770Z,16.18
2023-08-09T22:35:01.488Z,16.16
2023-08-09T22:37:03.469Z,16.15
2023-08-09T22:39:05.413Z,16.14
2023-08-09T22:41:07.291Z,16.13
2023-08-09T22:43:09.002Z,16.13
2023-08-09T22:45:10.755Z,16.13
2023-08-09T22:47:14.176Z,16.11
2023-08-09T22:49:16.127Z,16.12
2023-08-09T22:51:18.094Z,16.11
2023-08-09T22:53:19.717Z,16.11
2023-08-09T22:55:21.707Z,16.10
2023-08-09T22:57:23.870Z,16.10
2023-08-09T22:59:25.599Z,16.10
2023-08-09T23:01:27.649Z,16.09
2023-08-09T23:03:30.942Z,16.10
2023-08-09T23:05:32.712Z,16.10
2023-08-09T23:07:34.460Z,16.08
2023-08-09T23:09:36.612Z,16.08
2023-08-09T23:11:38.262Z,16.08
2023-08-09T23:13:40.228Z,16.06
2023-08-09T23:15:42.102Z,16.05
2023-08-09T23:17:43.812Z,16.06
2023-08-09T23:19:47.047Z,16.03
2023-08-09T23:21:48.927Z,16.02
2023-08-09T23:23:50.533Z,16.01
2023-08-09T23:25:52.226Z,16.01
2023-08-09T23:27:53.966Z,15.99
2023-08-09T23:29:55.580Z,15.99
2023-08-09T23:31:57.242Z,15.98
2023-08-09T23:33:59.014Z,15.96
2023-08-09T23:36:03.211Z,15.96
2023-08-09T23:38:04.891Z,15.93
2023-08-09T23:40:08.342Z,15.93
2023-08-09T23:42:10.669Z,15.90
2023-08-09T23:44:12.806Z,15.88
2023-08-09T23:46:14.476Z,15.88
2023-08-09T23:48:16.232Z,15.86
2023-08-09T23:50:17.924Z,15.85
2023-08-09T23:52:20.946Z,15.83
2023-08-09T23:54:22.623Z,15.81
2023-08-09T23:56:24.265Z,15.78
2023-08-09T23:58:25.962Z,15.77
